createdAt,value
2019-02-26T00:00:30.642Z,93.18
2019-02-26T00:01:30.927Z,93.27
2019-02-26T00:02:32.492Z,92.80
2019-02-26T00:03:31.430Z,93.18
2019-02-26T00:04:32.193Z,93.18
2019-02-26T00:05:31.222Z,93.37
2019-02-26T00:06:30.402Z,93.18
2019-02-26T00:07:32.208Z,93.13
2019-02-26T00:08:31.744Z,92.23
2019-02-26T00:09:32.334Z,92.66
2019-02-26T00:10:31.527Z,92.57
2019-02-26T00:11:30.868Z,93.23
2019-02-26T00:12:31.041Z,93.23
2019-02-26T00:13:31.951Z,94.08
2019-02-26T00:14:30.425Z,94.65
2019-02-26T00:15:33.396Z,94.84
2019-02-26T00:16:35.373Z,94.46
2019-02-26T00:17:30.102Z,93.89
2019-02-26T00:18:30.145Z,94.27
2019-02-26T00:19:30.031Z,94.27
2019-02-26T00:20:31.908Z,94.56
2019-02-26T00:21:31.050Z,95.22
2019-02-26T00:22:31.892Z,96.36
2019-02-26T00:23:30.104Z,96.92
2019-02-26T00:24:30.747Z,96.64
2019-02-26T00:25:29.866Z,96.55
2019-02-26T00:26:29.831Z,96.36
2019-02-26T00:27:30.530Z,96.17
2019-02-26T00:28:29.775Z,96.26
2019-02-26T00:29:30.400Z,97.50
2019-02-26T00:30:31.275Z,97.31
2019-02-26T00:31:30.454Z,97.88
2019-02-26T00:32:30.366Z,98.07
2019-02-26T00:33:29.757Z,97.59
2019-02-26T00:34:30.523Z,97.17
2019-02-26T00:35:29.654Z,97.31
2019-02-26T00:36:31.424Z,97.21
2019-02-26T00:37:30.664Z,97.02
2019-02-26T00:38:29.491Z,97.40
2019-02-26T00:39:31.395Z,97.50
2019-02-26T00:40:29.432Z,97.50
2019-02-26T00:41:31.279Z,97.88
2019-02-26T00:42:31.378Z,97.50
2019-02-26T00:43:30.654Z,97.31
2019-02-26T00:44:29.873Z,97.12
2019-02-26T00:45:30.113Z,97.21
2019-02-26T00:46:30.290Z,97.97
2019-02-26T00:47:31.841Z,99.96
2019-02-26T00:48:31.431Z,99.99
2019-02-26T00:49:30.231Z,99.99
2019-02-26T00:50:30.376Z,99.99
2019-02-26T00:51:29.120Z,99.87
2019-02-26T00:52:30.362Z,98.92
2019-02-26T00:53:30.651Z,99.11
2019-02-26T00:54:29.841Z,99.99
2019-02-26T00:55:29.862Z,99.99
2019-02-26T00:56:29.808Z,99.99
2019-02-26T00:57:31.008Z,99.99
2019-02-26T00:58:28.920Z,99.99
2019-02-26T00:59:28.902Z,99.99
2019-02-26T01:00:30.781Z,99.99
2019-02-26T01:01:28.870Z,99.99
2019-02-26T01:02:28.804Z,99.99
2019-02-26T01:03:28.892Z,99.99
2019-02-26T01:04:28.753Z,99.99
2019-02-26T01:05:28.723Z,99.99
2019-02-26T01:06:29.423Z,99.99
2019-02-26T01:07:30.284Z,99.99
2019-02-26T01:08:28.710Z,99.99
2019-02-26T01:09:29.479Z,99.99
2019-02-26T01:10:28.573Z,99.99
2019-02-26T01:11:30.126Z,99.99
2019-02-26T01:12:28.532Z,99.99
2019-02-26T01:13:29.979Z,99.99
2019-02-26T01:14:28.542Z,99.99
2019-02-26T01:15:28.431Z,99.99
2019-02-26T01:16:28.403Z,99.99
2019-02-26T01:17:28.460Z,99.99
2019-02-26T01:18:28.961Z,99.99
2019-02-26T01:19:28.369Z,99.99
2019-02-26T01:20:30.231Z,99.99
2019-02-26T01:21:29.194Z,99.99
2019-02-26T01:22:28.231Z,99.99
2019-02-26T01:23:28.961Z,99.99
2019-02-26T01:24:30.465Z,99.99
2019-02-26T01:25:28.201Z,99.99
2019-02-26T01:26:28.111Z,99.87
2019-02-26T01:27:28.085Z,99.99
2019-02-26T01:28:29.269Z,99.96
2019-02-26T01:29:29.940Z,99.87
2019-02-26T01:30:29.407Z,99.99
2019-02-26T01:31:29.246Z,99.11
2019-02-26T01:32:27.944Z,99.39
2019-02-26T01:33:30.244Z,99.11
2019-02-26T01:34:27.951Z,99.20
2019-02-26T01:35:28.861Z,99.99
2019-02-26T01:36:27.878Z,99.99
2019-02-26T01:37:29.646Z,99.99
2019-02-26T01:38:27.774Z,99.99
2019-02-26T01:39:27.743Z,99.99
2019-02-26T01:40:27.792Z,99.99
2019-02-26T01:41:27.681Z,99.99
2019-02-26T01:42:29.360Z,99.99
2019-02-26T01:43:27.623Z,99.99
2019-02-26T01:44:30.409Z,99.99
2019-02-26T01:45:29.820Z,99.99
2019-02-26T01:46:27.531Z,99.99
2019-02-26T01:47:28.517Z,99.99
2019-02-26T01:48:27.481Z,99.99
2019-02-26T01:49:28.496Z,99.99
2019-02-26T01:50:28.325Z,99.99
2019-02-26T01:51:28.633Z,99.99
2019-02-26T01:52:27.369Z,99.99
2019-02-26T01:53:27.485Z,99.99
2019-02-26T01:54:28.195Z,99.99
2019-02-26T01:55:27.759Z,99.99
2019-02-26T01:56:27.275Z,99.99
2019-02-26T01:57:27.826Z,99.99
2019-02-26T01:58:27.283Z,99.99
2019-02-26T01:59:27.159Z,99.99
2019-02-26T02:00:27.134Z,99.99
2019-02-26T02:01:27.103Z,99.99
2019-02-26T02:02:28.419Z,99.99
2019-02-26T02:03:27.990Z,99.99
2019-02-26T02:04:27.122Z,99.99
2019-02-26T02:05:29.451Z,99.99
2019-02-26T02:06:26.951Z,99.99
2019-02-26T02:07:28.842Z,99.99
2019-02-26T02:08:26.966Z,99.99
2019-02-26T02:09:26.869Z,99.99
2019-02-26T02:10:26.951Z,99.99
2019-02-26T02:11:30.623Z,99.99
2019-02-26T02:12:29.521Z,99.99
2019-02-26T02:13:28.758Z,99.99
2019-02-26T02:14:26.775Z,99.99
2019-02-26T02:15:26.702Z,99.99
2019-02-26T02:16:29.054Z,99.99
2019-02-26T02:17:28.677Z,99.99
2019-02-26T02:18:29.372Z,99.99
2019-02-26T02:19:27.602Z,99.99
2019-02-26T02:20:26.600Z,99.99
2019-02-26T02:21:28.378Z,99.99
2019-02-26T02:22:26.512Z,99.99
2019-02-26T02:23:28.028Z,99.99
2019-02-26T02:24:26.542Z,99.99
2019-02-26T02:25:28.999Z,99.99
2019-02-26T02:26:26.447Z,99.99
2019-02-26T02:27:28.084Z,99.99
2019-02-26T02:28:28.455Z,99.99
2019-02-26T02:29:28.462Z,99.99
2019-02-26T02:30:28.117Z,99.99
2019-02-26T02:31:30.271Z,99.99
2019-02-26T02:32:28.743Z,99.99
2019-02-26T02:33:27.415Z,99.99
2019-02-26T02:34:27.004Z,99.99
2019-02-26T02:35:26.189Z,99.99
2019-02-26T02:36:26.611Z,99.99
2019-02-26T02:37:26.878Z,99.99
2019-02-26T02:38:26.024Z,99.99
2019-02-26T02:39:26.524Z,99.99
2019-02-26T02:40:25.961Z,99.99
2019-02-26T02:41:26.021Z,99.99
2019-02-26T02:42:25.908Z,99.99
2019-02-26T02:43:25.932Z,99.99
2019-02-26T02:44:25.840Z,99.99
2019-02-26T02:45:25.832Z,99.99
2019-02-26T02:46:25.792Z,99.99
2019-02-26T02:47:28.567Z,99.99
2019-02-26T02:48:25.729Z,99.99
2019-02-26T02:49:25.762Z,99.99
2019-02-26T02:50:25.673Z,99.99
2019-02-26T02:51:27.712Z,99.99
2019-02-26T02:52:27.060Z,99.99
2019-02-26T02:53:27.440Z,99.99
2019-02-26T02:54:26.152Z,99.99
2019-02-26T02:55:25.602Z,99.99
2019-02-26T02:56:25.615Z,99.99
2019-02-26T02:57:26.959Z,99.99
2019-02-26T02:58:26.090Z,99.99
2019-02-26T02:59:25.409Z,99.99
2019-02-26T03:00:26.517Z,99.99
2019-02-26T03:01:28.626Z,99.99
2019-02-26T03:02:25.319Z,99.99
2019-02-26T03:03:25.340Z,99.99
2019-02-26T03:04:28.262Z,99.99
2019-02-26T03:05:25.262Z,99.99
2019-02-26T03:06:28.209Z,99.99
2019-02-26T03:07:28.812Z,99.99
2019-02-26T03:08:25.166Z,99.99
2019-02-26T03:09:25.121Z,99.99
2019-02-26T03:10:28.425Z,99.99
2019-02-26T03:11:25.059Z,99.99
2019-02-26T03:12:25.103Z,99.99
2019-02-26T03:13:25.985Z,99.99
2019-02-26T03:14:25.010Z,99.99
2019-02-26T03:15:27.207Z,99.99
2019-02-26T03:16:27.049Z,99.99
2019-02-26T03:17:24.884Z,99.99
2019-02-26T03:18:24.854Z,99.99
2019-02-26T03:19:24.821Z,99.99
2019-02-26T03:20:27.673Z,99.99
2019-02-26T03:21:27.727Z,99.99
2019-02-26T03:22:24.839Z,99.99
2019-02-26T03:23:24.707Z,99.99
2019-02-26T03:24:26.270Z,99.99
2019-02-26T03:25:27.029Z,99.99
2019-02-26T03:26:25.883Z,99.99
2019-02-26T03:27:27.830Z,99.99
2019-02-26T03:28:24.579Z,99.99
2019-02-26T03:29:24.532Z,99.99
2019-02-26T03:30:31.988Z,99.99
2019-02-26T03:31:28.687Z,99.99
2019-02-26T03:32:24.522Z,99.99
2019-02-26T03:33:24.414Z,99.99
2019-02-26T03:34:25.580Z,99.99
2019-02-26T03:35:24.354Z,99.99
2019-02-26T03:36:24.333Z,99.99
2019-02-26T03:37:25.836Z,99.99
2019-02-26T03:38:26.329Z,99.99
2019-02-26T03:39:24.331Z,99.99
2019-02-26T03:40:26.873Z,99.99
2019-02-26T03:41:26.337Z,99.99
2019-02-26T03:42:24.154Z,99.99
2019-02-26T03:43:24.162Z,99.99
2019-02-26T03:44:24.103Z,99.99
2019-02-26T03:45:25.240Z,99.99
2019-02-26T03:46:24.070Z,99.99
2019-02-26T03:47:23.999Z,99.99
2019-02-26T03:48:24.084Z,99.99
2019-02-26T03:49:27.114Z,99.99
2019-02-26T03:50:26.443Z,99.99
2019-02-26T03:51:23.906Z,99.99
2019-02-26T03:52:23.863Z,99.99
2019-02-26T03:53:28.034Z,99.99
2019-02-26T03:54:23.792Z,99.99
2019-02-26T03:55:23.823Z,99.99
2019-02-26T03:56:23.745Z,99.99
2019-02-26T03:57:24.814Z,99.99
2019-02-26T03:58:23.671Z,99.99
2019-02-26T03:59:23.750Z,99.99
2019-02-26T04:00:23.619Z,99.99
2019-02-26T04:01:23.671Z,99.99
2019-02-26T04:02:23.629Z,99.99
2019-02-26T04:03:23.535Z,99.99
2019-02-26T04:04:25.613Z,99.99
2019-02-26T04:05:23.579Z,99.99
2019-02-26T04:06:23.439Z,99.99
2019-02-26T04:07:26.009Z,99.99
2019-02-26T04:08:24.392Z,99.99
2019-02-26T04:09:23.405Z,99.99
2019-02-26T04:10:23.332Z,99.99
2019-02-26T04:11:25.648Z,99.99
2019-02-26T04:12:23.282Z,99.99
2019-02-26T04:13:23.322Z,99.99
2019-02-26T04:14:25.594Z,99.99
2019-02-26T04:15:25.005Z,99.99
2019-02-26T04:16:23.257Z,99.99
2019-02-26T04:17:25.748Z,99.99
2019-02-26T04:18:23.154Z,99.99
2019-02-26T04:19:26.103Z,99.99
2019-02-26T04:20:26.888Z,99.99
2019-02-26T04:21:23.001Z,99.99
2019-02-26T04:22:24.102Z,99.99
2019-02-26T04:23:22.944Z,99.99
2019-02-26T04:24:23.691Z,99.99
2019-02-26T04:25:26.994Z,99.99
2019-02-26T04:26:23.485Z,99.99
2019-02-26T04:27:22.904Z,99.99
2019-02-26T04:28:27.375Z,99.99
2019-02-26T04:29:22.809Z,99.99
2019-02-26T04:30:22.733Z,99.99
2019-02-26T04:31:22.703Z,99.99
2019-02-26T04:32:23.257Z,99.99
2019-02-26T04:33:22.640Z,99.99
2019-02-26T04:34:23.391Z,99.99
2019-02-26T04:35:22.582Z,99.99
2019-02-26T04:36:22.550Z,99.99
2019-02-26T04:37:24.757Z,99.99
2019-02-26T04:38:23.366Z,99.99
2019-02-26T04:39:22.531Z,99.99
2019-02-26T04:40:22.472Z,99.99
2019-02-26T04:41:22.401Z,99.99
2019-02-26T04:42:22.371Z,99.99
2019-02-26T04:43:22.379Z,99.99
2019-02-26T04:44:23.929Z,99.99
2019-02-26T04:45:22.391Z,99.99
2019-02-26T04:46:22.251Z,99.99
2019-02-26T04:47:24.192Z,99.99
2019-02-26T04:48:23.646Z,99.99
2019-02-26T04:49:22.210Z,99.99
2019-02-26T04:50:26.108Z,99.99
2019-02-26T04:51:22.123Z,99.99
2019-02-26T04:52:22.081Z,99.99
2019-02-26T04:53:23.347Z,99.99
2019-02-26T04:54:26.359Z,99.99
2019-02-26T04:55:21.993Z,99.99
2019-02-26T04:56:22.056Z,99.99
2019-02-26T04:57:21.932Z,99.99
2019-02-26T04:58:22.674Z,99.99
2019-02-26T04:59:21.872Z,99.99
2019-02-26T05:00:23.667Z,99.99
2019-02-26T05:01:21.811Z,99.99
2019-02-26T05:02:21.903Z,99.99
2019-02-26T05:03:21.764Z,99.99
2019-02-26T05:04:21.724Z,99.99
2019-02-26T05:05:22.461Z,99.99
2019-02-26T05:06:21.713Z,99.99
2019-02-26T05:07:21.631Z,99.99
2019-02-26T05:08:21.665Z,99.99
2019-02-26T05:09:22.150Z,99.99
2019-02-26T05:10:24.267Z,99.99
2019-02-26T05:11:31.573Z,99.99
2019-02-26T05:12:25.086Z,99.99
2019-02-26T05:13:22.747Z,99.99
2019-02-26T05:14:23.604Z,99.99
2019-02-26T05:15:23.181Z,99.99
2019-02-26T05:16:21.475Z,99.99
2019-02-26T05:17:23.861Z,99.99
2019-02-26T05:18:23.164Z,99.99
2019-02-26T05:19:22.351Z,99.99
2019-02-26T05:20:21.283Z,99.99
2019-02-26T05:21:21.210Z,99.99
2019-02-26T05:22:22.684Z,99.99
2019-02-26T05:23:23.279Z,99.99
2019-02-26T05:25:52.950Z,99.99
2019-02-26T05:26:52.845Z,99.99
2019-02-26T05:28:56.861Z,99.99
2019-02-26T05:29:56.753Z,99.99
2019-02-26T05:32:01.776Z,99.99
2019-02-26T05:33:02.902Z,99.99
2019-02-26T05:35:04.684Z,99.99
2019-02-26T05:36:06.224Z,99.99
2019-02-26T05:38:09.656Z,99.99
2019-02-26T05:39:08.499Z,99.99
2019-02-26T05:41:12.525Z,99.99
2019-02-26T05:42:12.425Z,99.99
2019-02-26T05:44:16.418Z,99.99
2019-02-26T05:45:16.310Z,99.99
2019-02-26T05:47:21.416Z,99.99
2019-02-26T05:48:22.579Z,99.99
2019-02-26T05:50:16.173Z,99.99
2019-02-26T05:51:13.070Z,99.99
2019-02-26T05:53:17.087Z,99.99
2019-02-26T05:54:20.826Z,99.99
2019-02-26T05:56:22.912Z,99.99
2019-02-26T05:57:31.295Z,99.99
2019-02-26T05:59:24.949Z,99.99
2019-02-26T06:00:28.969Z,99.99
2019-02-26T06:02:28.913Z,99.99
2019-02-26T06:03:28.814Z,99.99
2019-02-26T06:05:32.771Z,99.99
2019-02-26T06:06:32.827Z,99.99
2019-02-26T06:08:39.261Z,99.99
2019-02-26T06:09:36.654Z,99.99
2019-02-26T06:11:42.845Z,99.99
2019-02-26T06:12:43.333Z,99.99
2019-02-26T06:14:44.553Z,99.99
2019-02-26T06:15:44.536Z,99.99
2019-02-26T06:17:50.835Z,99.99
2019-02-26T06:18:49.106Z,99.99
2019-02-26T06:20:41.323Z,99.99
2019-02-26T06:21:43.920Z,99.99
2019-02-26T06:23:45.372Z,99.99
2019-02-26T06:24:45.164Z,99.99
2019-02-26T06:26:49.215Z,99.99
2019-02-26T06:27:49.173Z,99.99
2019-02-26T06:29:57.210Z,99.99
2019-02-26T06:30:55.049Z,99.99
2019-02-26T06:33:02.033Z,99.99
2019-02-26T06:34:01.521Z,99.99
2019-02-26T06:36:02.260Z,99.99
2019-02-26T06:37:01.223Z,99.99
2019-02-26T06:39:06.025Z,99.99
2019-02-26T06:40:07.357Z,99.99
2019-02-26T06:42:10.339Z,99.99
2019-02-26T06:43:09.253Z,99.99
2019-02-26T06:45:16.258Z,99.99
2019-02-26T06:46:14.144Z,99.99
2019-02-26T06:48:20.180Z,99.99
2019-02-26T06:49:19.991Z,99.99
2019-02-26T06:51:23.865Z,99.99
2019-02-26T06:52:21.292Z,99.99
2019-02-26T06:54:27.115Z,99.99
2019-02-26T06:55:25.321Z,99.99
2019-02-26T06:57:29.543Z,99.99
2019-02-26T06:58:29.332Z,99.99
2019-02-26T07:00:24.591Z,99.99
2019-02-26T07:01:22.170Z,99.99
2019-02-26T07:03:26.203Z,99.99
2019-02-26T07:04:29.399Z,99.99
2019-02-26T07:06:30.951Z,99.99
2019-02-26T07:07:30.005Z,99.99
2019-02-26T07:09:34.657Z,99.99
2019-02-26T07:10:33.915Z,99.99
2019-02-26T07:12:38.773Z,99.99
2019-02-26T07:13:39.171Z,99.99
2019-02-26T07:15:45.188Z,99.99
2019-02-26T07:16:41.742Z,99.99
2019-02-26T07:18:45.766Z,99.99
2019-02-26T07:19:45.652Z,99.99
2019-02-26T07:21:51.314Z,99.99
2019-02-26T07:22:51.577Z,99.99
2019-02-26T07:24:54.008Z,99.99
2019-02-26T07:25:53.473Z,99.99
2019-02-26T07:27:58.727Z,99.99
2019-02-26T07:28:57.383Z,99.99
2019-02-26T07:30:50.355Z,99.99
2019-02-26T07:31:51.882Z,99.99
2019-02-26T07:33:56.388Z,99.99
2019-02-26T07:34:54.150Z,99.99
2019-02-26T07:36:58.172Z,99.99
2019-02-26T07:37:59.494Z,99.99
2019-02-26T07:40:03.750Z,99.99
2019-02-26T07:41:03.777Z,99.99
2019-02-26T07:43:09.126Z,99.99
2019-02-26T07:44:09.030Z,99.99
2019-02-26T07:45:14.571Z,99.99
2019-02-26T07:46:05.834Z,99.99
2019-02-26T07:47:06.691Z,99.99
2019-02-26T07:48:05.771Z,99.99
2019-02-26T07:49:07.422Z,99.99
2019-02-26T07:50:06.684Z,99.99
2019-02-26T07:51:05.680Z,99.99
2019-02-26T07:52:06.880Z,99.99
2019-02-26T07:53:05.626Z,99.99
2019-02-26T07:54:05.590Z,99.99
2019-02-26T07:55:06.241Z,99.99
2019-02-26T07:56:06.720Z,99.99
2019-02-26T07:57:05.491Z,99.99
2019-02-26T07:58:06.309Z,99.99
2019-02-26T07:59:09.409Z,99.99
2019-02-26T08:00:05.427Z,99.99
2019-02-26T08:01:05.482Z,99.99
2019-02-26T08:02:06.385Z,99.99
2019-02-26T08:03:05.380Z,99.99
2019-02-26T08:04:06.227Z,99.99
2019-02-26T08:05:05.260Z,99.99
2019-02-26T08:06:07.224Z,99.99
2019-02-26T08:07:05.202Z,99.99
2019-02-26T08:08:05.211Z,99.99
2019-02-26T08:09:07.073Z,99.99
2019-02-26T08:10:06.059Z,99.99
2019-02-26T08:11:05.086Z,99.99
2019-02-26T08:12:07.176Z,99.99
2019-02-26T08:13:06.265Z,99.99
2019-02-26T08:14:05.056Z,99.99
2019-02-26T08:15:07.440Z,99.99
2019-02-26T08:16:05.239Z,99.99
2019-02-26T08:17:06.324Z,99.99
2019-02-26T08:18:05.345Z,99.99
2019-02-26T08:19:04.895Z,99.99
2019-02-26T08:20:07.442Z,99.99
2019-02-26T08:21:05.165Z,99.99
2019-02-26T08:22:04.751Z,99.99
2019-02-26T08:23:04.818Z,99.99
2019-02-26T08:24:04.693Z,99.99
2019-02-26T08:25:04.727Z,99.99
2019-02-26T08:26:04.630Z,99.99
2019-02-26T08:27:06.059Z,99.99
2019-02-26T08:28:04.652Z,99.99
2019-02-26T08:29:05.680Z,99.99
2019-02-26T08:30:06.717Z,99.99
2019-02-26T08:31:05.391Z,99.99
2019-02-26T08:32:04.458Z,99.99
2019-02-26T08:33:07.164Z,99.99
2019-02-26T08:34:04.480Z,99.99
2019-02-26T08:35:04.363Z,99.99
2019-02-26T08:36:04.392Z,99.99
2019-02-26T08:37:04.333Z,99.99
2019-02-26T08:38:06.240Z,99.99
2019-02-26T08:39:04.309Z,99.99
2019-02-26T08:40:04.222Z,99.99
2019-02-26T08:41:04.234Z,99.99
2019-02-26T08:42:04.174Z,99.99
2019-02-26T08:43:04.133Z,99.99
2019-02-26T08:44:04.101Z,99.99
2019-02-26T08:45:04.143Z,99.99
2019-02-26T08:46:04.051Z,99.99
2019-02-26T08:47:08.752Z,99.99
2019-02-26T08:48:03.994Z,99.99
2019-02-26T08:49:08.407Z,99.99
2019-02-26T08:50:06.683Z,99.99
2019-02-26T08:51:06.181Z,99.99
2019-02-26T08:52:03.879Z,99.99
2019-02-26T08:53:03.893Z,99.99
2019-02-26T08:54:03.825Z,99.99
2019-02-26T08:55:03.815Z,99.69
2019-02-26T08:56:04.140Z,99.40
2019-02-26T08:57:03.825Z,98.83
2019-02-26T08:58:03.723Z,98.74
2019-02-26T08:59:03.718Z,99.30
2019-02-26T09:00:03.654Z,98.83
2019-02-26T09:01:03.647Z,98.83
2019-02-26T09:02:03.584Z,98.74
2019-02-26T09:03:03.677Z,99.30
2019-02-26T09:04:03.544Z,98.36
2019-02-26T09:05:04.992Z,99.11
2019-02-26T09:06:12.824Z,99.88
2019-02-26T09:07:03.442Z,99.88
2019-02-26T09:08:03.493Z,99.26
2019-02-26T09:09:05.005Z,98.12
2019-02-26T09:10:03.361Z,97.36
2019-02-26T09:11:03.896Z,96.89
2019-02-26T09:12:03.424Z,95.84
2019-02-26T09:13:03.271Z,95.84
2019-02-26T09:14:04.850Z,95.56
2019-02-26T09:15:03.223Z,95.08
2019-02-26T09:16:05.538Z,94.60
2019-02-26T09:17:04.494Z,95.41
2019-02-26T09:18:03.165Z,95.70
2019-02-26T09:19:03.103Z,95.32
2019-02-26T09:20:09.372Z,95.32
2019-02-26T09:21:03.058Z,95.60
2019-02-26T09:22:03.083Z,95.22
2019-02-26T09:23:03.002Z,94.46
2019-02-26T09:24:05.421Z,93.65
2019-02-26T09:25:02.940Z,93.18
2019-02-26T09:26:05.159Z,92.79
2019-02-26T09:27:04.994Z,92.89
2019-02-26T09:28:02.915Z,93.51
2019-02-26T09:29:02.836Z,92.89
2019-02-26T09:30:03.460Z,90.22
2019-02-26T09:31:04.713Z,86.82
2019-02-26T09:32:02.822Z,81.09
2019-02-26T09:33:03.403Z,75.09
2019-02-26T09:34:02.698Z,71.58
2019-02-26T09:35:04.786Z,68.68
2019-02-26T09:36:02.646Z,64.34
2019-02-26T09:37:05.020Z,61.33
2019-02-26T09:38:02.592Z,59.73
2019-02-26T09:39:03.301Z,56.91
2019-02-26T09:40:04.845Z,54.05
2019-02-26T09:41:02.593Z,52.54
2019-02-26T09:42:04.211Z,50.37
2019-02-26T09:43:02.472Z,49.53
2019-02-26T09:44:06.218Z,48.21
2019-02-26T09:45:02.436Z,45.89
2019-02-26T09:46:04.009Z,44.68
2019-02-26T09:47:04.825Z,43.64
2019-02-26T09:48:02.361Z,42.10
2019-02-26T09:49:05.094Z,42.29
2019-02-26T09:50:02.322Z,41.93
2019-02-26T09:51:02.362Z,41.56
2019-02-26T09:52:03.954Z,40.71
2019-02-26T09:53:02.372Z,39.64
2019-02-26T09:54:02.247Z,40.44
2019-02-26T09:55:02.282Z,40.25
2019-02-26T09:56:02.211Z,39.78
2019-02-26T09:57:02.303Z,39.01
2019-02-26T09:58:02.632Z,37.36
2019-02-26T09:59:02.955Z,37.09
2019-02-26T10:00:03.321Z,36.70
2019-02-26T10:01:02.225Z,36.70
2019-02-26T10:02:04.066Z,36.04
2019-02-26T10:03:03.067Z,35.46
2019-02-26T10:04:03.604Z,35.07
2019-02-26T10:05:02.062Z,35.77
2019-02-26T10:06:02.154Z,35.48
2019-02-26T10:07:04.074Z,35.86
2019-02-26T10:08:03.450Z,34.33
2019-02-26T10:09:02.002Z,33.76
2019-02-26T10:10:05.460Z,33.76
2019-02-26T10:11:04.279Z,33.29
2019-02-26T10:12:02.782Z,32.42
2019-02-26T10:13:04.611Z,33.02
2019-02-26T10:14:02.904Z,33.41
2019-02-26T10:15:03.206Z,32.34
2019-02-26T10:16:04.017Z,32.73
2019-02-26T10:17:01.935Z,33.12
2019-02-26T10:18:04.130Z,33.70
2019-02-26T10:19:01.947Z,33.80
2019-02-26T10:20:04.418Z,33.53
2019-02-26T10:21:01.966Z,33.91
2019-02-26T10:22:03.567Z,32.94
2019-02-26T10:23:04.267Z,32.45
2019-02-26T10:24:02.080Z,32.17
2019-02-26T10:25:01.887Z,32.55
2019-02-26T10:26:03.480Z,32.94
2019-02-26T10:27:03.736Z,32.55
2019-02-26T10:28:05.698Z,32.67
2019-02-26T10:29:04.519Z,32.47
2019-02-26T10:30:02.797Z,32.78
2019-02-26T10:31:04.313Z,32.39
2019-02-26T10:32:01.711Z,31.63
2019-02-26T10:33:02.808Z,31.53
2019-02-26T10:34:03.074Z,30.85
2019-02-26T10:35:01.757Z,31.16
2019-02-26T10:36:03.411Z,30.87
2019-02-26T10:37:01.653Z,30.87
2019-02-26T10:38:05.139Z,31.06
2019-02-26T10:39:02.789Z,30.38
2019-02-26T10:40:01.684Z,30.29
2019-02-26T10:41:01.893Z,30.39
2019-02-26T10:42:02.561Z,30.21
2019-02-26T10:43:01.592Z,29.82
2019-02-26T10:44:01.618Z,30.21
2019-02-26T10:45:01.584Z,29.82
2019-02-26T10:46:01.624Z,29.64
2019-02-26T10:47:03.313Z,29.83
2019-02-26T10:48:01.814Z,28.77
2019-02-26T10:49:01.642Z,28.08
2019-02-26T10:50:01.522Z,27.79
2019-02-26T10:51:06.037Z,27.89
2019-02-26T10:52:01.517Z,27.79
2019-02-26T10:53:07.245Z,28.38
2019-02-26T10:54:02.783Z,27.70
2019-02-26T10:55:01.494Z,27.70
2019-02-26T10:56:01.494Z,27.22
2019-02-26T10:57:04.509Z,26.93
2019-02-26T10:58:06.905Z,27.91
2019-02-26T10:59:03.565Z,28.01
2019-02-26T11:00:02.485Z,27.83
2019-02-26T11:01:04.901Z,26.66
2019-02-26T11:02:03.070Z,27.25
2019-02-26T11:03:01.406Z,26.56
2019-02-26T11:04:01.395Z,25.29
2019-02-26T11:05:01.449Z,26.27
2019-02-26T11:06:01.372Z,26.18
2019-02-26T11:07:02.406Z,25.79
2019-02-26T11:08:02.934Z,27.06
2019-02-26T11:09:01.921Z,27.17
2019-02-26T11:10:01.363Z,25.70
2019-02-26T11:11:01.388Z,25.32
2019-02-26T11:12:05.214Z,24.25
2019-02-26T11:13:01.408Z,25.44
2019-02-26T11:14:01.307Z,25.24
2019-02-26T11:15:04.359Z,25.24
2019-02-26T11:16:03.050Z,24.46
2019-02-26T11:17:01.288Z,25.73
2019-02-26T11:18:01.382Z,25.73
2019-02-26T11:19:02.394Z,25.33
2019-02-26T11:20:04.345Z,25.72
2019-02-26T11:21:01.255Z,26.70
2019-02-26T11:22:04.145Z,26.40
2019-02-26T11:23:03.442Z,26.01
2019-02-26T11:24:03.509Z,26.99
2019-02-26T11:25:08.545Z,27.10
2019-02-26T11:27:05.311Z,25.52
2019-02-26T11:28:07.368Z,26.40
2019-02-26T11:30:09.318Z,26.59
2019-02-26T11:31:11.573Z,26.88
2019-02-26T11:33:15.452Z,26.50
2019-02-26T11:34:13.483Z,26.79
2019-02-26T11:36:17.282Z,26.88
2019-02-26T11:37:17.263Z,26.79
2019-02-26T11:39:21.340Z,25.51
2019-02-26T11:40:23.018Z,26.77
2019-02-26T11:42:26.076Z,27.34
2019-02-26T11:43:27.031Z,27.54
2019-02-26T11:45:29.373Z,27.54
2019-02-26T11:46:29.903Z,26.76
2019-02-26T11:48:33.390Z,28.22
2019-02-26T11:49:34.880Z,28.50
2019-02-26T11:51:41.752Z,28.79
2019-02-26T11:52:37.385Z,28.49
2019-02-26T11:54:42.166Z,27.79
2019-02-26T11:55:41.371Z,28.57
2019-02-26T11:57:47.383Z,29.44
2019-02-26T11:58:45.381Z,29.35
2019-02-26T12:00:39.932Z,28.29
2019-02-26T12:01:39.520Z,26.73
2019-02-26T12:03:43.955Z,28.68
2019-02-26T12:04:42.374Z,28.96
2019-02-26T12:06:46.422Z,29.54
2019-02-26T12:07:48.606Z,29.43
2019-02-26T12:09:50.432Z,31.09
2019-02-26T12:10:52.281Z,30.02
2019-02-26T12:12:56.610Z,29.53
2019-02-26T12:13:54.385Z,30.00
2019-02-26T12:15:58.481Z,30.58
2019-02-26T12:16:58.403Z,31.07
2019-02-26T12:19:04.046Z,30.49
2019-02-26T12:20:02.424Z,29.61
2019-02-26T12:22:06.493Z,30.39
2019-02-26T12:23:07.981Z,30.87
2019-02-26T12:25:11.084Z,30.96
2019-02-26T12:26:10.442Z,30.67
2019-02-26T12:28:14.563Z,30.77
2019-02-26T12:29:16.205Z,31.24
2019-02-26T12:31:18.501Z,31.43
2019-02-26T12:32:19.990Z,31.43
2019-02-26T12:34:23.610Z,32.31
2019-02-26T12:35:22.492Z,32.40
2019-02-26T12:37:26.563Z,32.10
2019-02-26T12:38:26.505Z,32.29
2019-02-26T12:40:22.231Z,32.50
2019-02-26T12:41:21.026Z,31.24
2019-02-26T12:43:23.541Z,32.79
2019-02-26T12:44:23.485Z,32.31
2019-02-26T12:45:26.119Z,32.11
2019-02-26T12:46:25.067Z,32.40
2019-02-26T12:47:24.628Z,34.16
2019-02-26T12:48:23.536Z,32.50
2019-02-26T12:49:23.446Z,32.29
2019-02-26T12:50:26.622Z,32.78
2019-02-26T12:51:27.616Z,31.51
2019-02-26T12:52:25.171Z,31.51
2019-02-26T12:53:23.688Z,32.10
2019-02-26T12:54:24.233Z,32.78
2019-02-26T12:55:28.921Z,32.78
2019-02-26T12:56:24.184Z,32.78
2019-02-26T12:57:26.052Z,32.28
2019-02-26T12:58:26.190Z,32.78
2019-02-26T12:59:23.415Z,32.97
2019-02-26T13:00:23.356Z,32.00
2019-02-26T13:01:23.430Z,32.68
2019-02-26T13:02:25.623Z,32.49
2019-02-26T13:03:23.324Z,32.78
2019-02-26T13:04:25.052Z,32.00
2019-02-26T13:05:23.367Z,30.43
2019-02-26T13:06:23.302Z,31.40
2019-02-26T13:07:23.361Z,30.61
2019-02-26T13:08:24.195Z,32.26
2019-02-26T13:09:26.662Z,32.84
2019-02-26T13:10:23.265Z,32.26
2019-02-26T13:11:24.882Z,30.91
2019-02-26T13:12:24.003Z,30.72
2019-02-26T13:13:23.302Z,29.93
2019-02-26T13:14:23.242Z,30.90
2019-02-26T13:15:23.323Z,32.57
2019-02-26T13:16:23.211Z,32.08
2019-02-26T13:17:26.156Z,30.90
2019-02-26T13:18:23.194Z,29.05
2019-02-26T13:19:29.169Z,30.80
2019-02-26T13:20:23.177Z,31.30
2019-02-26T13:21:23.262Z,32.18
2019-02-26T13:22:23.153Z,31.21
2019-02-26T13:23:23.220Z,29.44
2019-02-26T13:24:26.470Z,29.44
2019-02-26T13:25:26.689Z,30.41
2019-02-26T13:26:23.230Z,31.00
2019-02-26T13:27:23.107Z,32.26
2019-02-26T13:28:29.384Z,31.00
2019-02-26T13:29:23.072Z,29.93
2019-02-26T13:30:23.061Z,31.10
2019-02-26T13:31:23.087Z,31.97
2019-02-26T13:32:26.071Z,29.94
2019-02-26T13:33:27.498Z,29.44
2019-02-26T13:34:23.022Z,29.05
2019-02-26T13:35:23.051Z,29.93
2019-02-26T13:36:23.040Z,32.26
2019-02-26T13:37:26.551Z,31.87
2019-02-26T13:38:24.812Z,31.30
2019-02-26T13:39:29.839Z,29.75
2019-02-26T13:40:22.953Z,29.74
2019-02-26T13:41:29.931Z,30.90
2019-02-26T13:42:23.002Z,30.12
2019-02-26T13:43:22.915Z,29.25
2019-02-26T13:44:22.927Z,29.05
2019-02-26T13:45:22.881Z,30.02
2019-02-26T13:46:22.875Z,30.51
2019-02-26T13:47:22.861Z,30.21
2019-02-26T13:48:22.956Z,28.36
2019-02-26T13:49:22.832Z,27.68
2019-02-26T13:50:22.858Z,29.43
2019-02-26T13:51:22.812Z,28.36
2019-02-26T13:52:22.790Z,29.04
2019-02-26T13:53:22.874Z,27.87
2019-02-26T13:54:22.771Z,29.04
2019-02-26T13:55:22.783Z,27.96
2019-02-26T13:56:22.746Z,28.54
2019-02-26T13:57:22.730Z,30.19
2019-02-26T13:58:22.713Z,30.79
2019-02-26T13:59:22.814Z,30.59
2019-02-26T14:00:26.364Z,31.27
2019-02-26T14:01:22.721Z,30.69
2019-02-26T14:02:22.667Z,30.98
2019-02-26T14:03:22.651Z,31.37
2019-02-26T14:04:22.743Z,30.11
2019-02-26T14:05:22.634Z,30.01
2019-02-26T14:06:22.650Z,31.47
2019-02-26T14:07:22.600Z,30.80
2019-02-26T14:08:22.602Z,29.91